Time;durP1;ratioP1;P1;durP2;ratioP2;P2;SDS_P1;SDS_P2;PMS_P1;PMS_P2;Temp;Humidity;BMP_temperature;BMP_pressure;BME280_temperature;BME280_humidity;BME280_pressure;Samples;Min_cycle;Max_cycle;Signal;HPM_P1;HPM_P2
2023/12/09 00:00:38;;;;;;;120.70;53.17;;;;;;;-0.16;94.79;100892.41;4933917;28;20114;-70
2023/12/09 00:03:07;;;;;;;109.85;48.80;;;;;;;-0.15;94.74;100894.13;4934506;28;20126;-71
2023/12/09 00:05:34;;;;;;;104.63;47.85;;;;;;;-0.07;94.43;100904.44;4933780;28;20489;-70
2023/12/09 00:08:01;;;;;;;112.20;48.67;;;;;;;-0.08;94.79;100900.03;4933925;28;20060;-72
2023/12/09 00:10:28;;;;;;;102.18;47.20;;;;;;;-0.02;94.49;100892.66;4933623;28;20051;-70
2023/12/09 00:12:54;;;;;;;107.63;48.70;;;;;;;-0.05;94.57;100889.28;4934522;28;20051;-71
2023/12/09 00:15:21;;;;;;;104.70;48.72;;;;;;;-0.04;94.28;100891.00;4934080;28;20386;-71
2023/12/09 00:17:48;;;;;;;112.05;46.75;;;;;;;-0.12;94.34;100888.66;4933728;28;20497;-71
2023/12/09 00:20:15;;;;;;;105.80;46.50;;;;;;;-0.14;93.92;100893.19;4933883;28;20071;-72
2023/12/09 00:22:42;;;;;;;113.88;50.45;;;;;;;-0.13;94.31;100888.72;4932028;28;20072;-72
2023/12/09 00:25:09;;;;;;;101.55;46.85;;;;;;;-0.05;94.62;100890.16;4932907;28;20500;-72
2023/12/09 00:27:35;;;;;;;106.05;48.10;;;;;;;-0.04;94.14;100891.88;4933754;28;20051;-70
2023/12/09 00:30:02;;;;;;;109.57;49.13;;;;;;;-0.08;94.23;100886.72;4931594;28;20047;-71
2023/12/09 00:32:29;;;;;;;111.63;48.03;;;;;;;-0.13;94.59;100896.72;4932995;28;20122;-67
2023/12/09 00:34:56;;;;;;;105.75;47.63;;;;;;;-0.10;94.59;100897.44;4935939;28;20617;-70
2023/12/09 00:37:23;;;;;;;117.07;48.65;;;;;;;-0.11;93.88;100895.72;4935407;28;20393;-67
2023/12/09 00:39:49;;;;;;;118.20;49.92;;;;;;;-0.14;94.60;100890.53;4935352;28;20102;-68
2023/12/09 00:42:16;;;;;;;111.43;48.10;;;;;;;-0.10;94.36;100894.78;4934924;28;20055;-67
2023/12/09 00:44:43;;;;;;;111.47;49.17;;;;;;;-0.03;94.25;100893.59;4934476;28;20051;-68
2023/12/09 00:47:09;;;;;;;106.18;46.58;;;;;;;-0.04;94.38;100907.88;4935174;28;20048;-68
2023/12/09 00:49:36;;;;;;;113.78;48.53;;;;;;;-0.03;94.22;100904.28;4935112;28;20052;-66
2023/12/09 00:52:03;;;;;;;103.15;47.38;;;;;;;0.01;93.97;100894.34;4934481;28;20051;-67
2023/12/09 00:54:29;;;;;;;114.10;47.90;;;;;;;-0.04;93.68;100899.88;4920782;28;20095;-66
2023/12/09 00:56:56;;;;;;;106.50;47.70;;;;;;;-0.06;94.39;100903.53;4916756;29;20048;-68
2023/12/09 00:59:22;;;;;;;100.50;45.90;;;;;;;-0.07;93.79;100908.00;4915907;29;20071;-67
2023/12/09 01:01:49;;;;;;;99.47;45.50;;;;;;;-0.02;94.22;100908.66;4915580;29;20532;-66
2023/12/09 01:04:16;;;;;;;109.82;46.40;;;;;;;0.03;94.04;100909.38;4916247;29;20415;-70
2023/12/09 01:06:42;;;;;;;103.03;46.55;;;;;;;0.11;93.28;100909.00;4914757;29;20147;-70
2023/12/09 01:09:09;;;;;;;98.18;45.33;;;;;;;0.04;93.48;100913.75;4914495;29;20051;-70
2023/12/09 01:11:36;;;;;;;95.63;44.78;;;;;;;0.13;93.98;100910.72;4914300;29;20048;-69
2023/12/09 01:14:02;;;;;;;89.57;43.33;;;;;;;0.18;93.48;100917.63;4914590;29;20044;-70
2023/12/09 01:16:29;;;;;;;104.40;45.97;;;;;;;0.13;93.16;100916.03;4914330;29;20063;-70
2023/12/09 01:18:56;;;;;;;99.68;44.28;;;;;;;0.07;93.79;100923.41;4914143;29;20055;-71
2023/12/09 01:21:23;;;;;;;99.63;45.65;;;;;;;0.16;93.71;100922.16;4914330;29;20048;-71
2023/12/09 01:23:50;;;;;;;94.07;44.38;;;;;;;0.21;93.63;100920.16;4913994;29;20485;-69
2023/12/09 01:26:16;;;;;;;102.05;45.45;;;;;;;0.18;93.41;100914.97;4914066;29;20075;-69
2023/12/09 01:28:44;;;;;;;95.70;44.13;;;;;;;0.32;92.62;100915.25;4913775;29;20076;-70
2023/12/09 01:31:10;;;;;;;95.40;44.47;;;;;;;0.20;92.90;100915.75;4914278;29;20055;-70
2023/12/09 01:33:37;;;;;;;100.60;44.63;;;;;;;0.16;93.44;100924.84;4914383;29;20079;-70
2023/12/09 01:36:04;;;;;;;96.95;44.47;;;;;;;0.10;93.52;100910.81;4913438;29;20048;-70
2023/12/09 01:38:31;;;;;;;101.63;45.90;;;;;;;0.14;92.89;100923.09;4912888;29;20048;-70
2023/12/09 01:40:58;;;;;;;96.10;44.13;;;;;;;0.23;93.70;100921.84;4913249;29;20048;-70
2023/12/09 01:43:24;;;;;;;92.15;43.28;;;;;;;0.31;93.25;100922.41;4914014;29;20485;-71
2023/12/09 01:45:54;;;;;;;94.20;44.38;;;;;;;0.33;93.07;100911.66;4913460;29;20063;-72
2023/12/09 01:48:22;;;;;;;86.78;41.28;;;;;;;0.31;93.10;100908.19;4914988;29;20481;-71
2023/12/09 01:50:49;;;;;;;97.63;43.35;;;;;;;0.24;92.80;100912.06;4917224;29;20064;-71
2023/12/09 01:53:16;;;;;;;92.38;43.60;;;;;;;0.21;93.24;100907.72;4921606;28;20437;-71
2023/12/09 01:55:42;;;;;;;91.57;43.15;;;;;;;0.25;93.33;100911.97;4933920;28;20051;-71
2023/12/09 01:58:10;;;;;;;90.57;43.17;;;;;;;0.23;93.53;100910.31;4935758;28;20059;-70
2023/12/09 02:00:38;;;;;;;96.13;42.78;;;;;;;0.11;93.35;100901.88;4935142;28;20052;-70
2023/12/09 02:03:06;;;;;;;99.40;45.58;;;;;;;0.07;93.93;100899.41;4935559;28;20071;-71
2023/12/09 02:09:20;;;;;;;92.82;43.25;;;;;;;0.10;93.67;100905.47;4935199;28;20051;-71
2023/12/09 02:12:13;;;;;;;97.90;45.05;;;;;;;0.13;93.89;100902.72;4935623;28;20147;-71
2023/12/09 02:14:54;;;;;;;99.75;43.90;;;;;;;0.19;93.93;100898.88;4935886;28;20227;-71
2023/12/09 02:17:47;;;;;;;;;;;;;;;0.19;93.55;100895.34;4935707;28;20051;-70
2023/12/09 02:20:14;;;;;;;98.20;43.47;;;;;;;0.18;93.93;100898.97;4913674;28;19977;-72
2023/12/09 02:22:40;;;;;;;98.90;43.72;;;;;;;0.11;93.94;100915.22;4934802;28;20530;-72
2023/12/09 02:25:08;;;;;;;99.43;44.85;;;;;;;0.06;93.96;100903.88;4935977;28;20059;-72
2023/12/09 02:27:57;;;;;;;99.72;44.25;;;;;;;0.07;94.10;100905.63;4934816;28;20052;-71
2023/12/09 02:30:41;;;;;;;101.75;45.67;;;;;;;0.08;93.95;100902.00;4935026;28;20044;-71
2023/12/09 02:33:09;;;;;;;99.70;44.80;;;;;;;0.08;94.22;100912.69;4935756;28;20031;-71
2023/12/09 02:35:40;;;;;;;104.65;44.92;;;;;;;0.07;93.91;100908.28;4934742;28;20051;-71
2023/12/09 02:38:08;;;;;;;100.00;45.50;;;;;;;0.21;94.11;100909.50;4935044;28;20039;-72
2023/12/09 02:40:36;;;;;;;102.15;44.15;;;;;;;0.30;93.73;100917.09;4934861;28;20047;-71
2023/12/09 02:43:03;;;;;;;105.35;45.75;;;;;;;0.28;93.85;100913.63;4934655;28;20518;-72
2023/12/09 02:45:30;;;;;;;101.55;45.47;;;;;;;0.31;93.38;100906.41;4934773;28;20102;-71
2023/12/09 02:47:57;;;;;;;102.13;46.33;;;;;;;0.25;93.68;100903.13;4935147;28;20154;-71
2023/12/09 02:50:24;;;;;;;103.38;47.45;;;;;;;0.28;93.89;100902.97;4935119;28;20053;-72
2023/12/09 02:52:50;;;;;;;103.47;45.90;;;;;;;0.30;93.57;100895.75;4933335;28;20461;-71
2023/12/09 02:55:17;;;;;;;105.25;46.22;;;;;;;0.23;93.48;100892.50;4915288;29;20079;-71
2023/12/09 02:57:44;;;;;;;107.18;45.65;;;;;;;0.31;93.71;100894.84;4915953;29;20107;-72
2023/12/09 03:00:11;;;;;;;106.45;46.17;;;;;;;0.23;93.91;100896.97;4914664;29;20559;-72
2023/12/09 03:02:37;;;;;;;114.25;46.10;;;;;;;0.20;94.41;100894.41;4915318;29;20067;-71
2023/12/09 03:05:04;;;;;;;111.15;47.38;;;;;;;0.31;94.09;100892.19;4916405;29;20464;-71
2023/12/09 03:07:31;;;;;;;124.25;47.38;;;;;;;0.32;93.76;100892.13;4915888;29;20076;-71
2023/12/09 03:09:57;;;;;;;119.22;47.42;;;;;;;0.30;93.78;100893.09;4916171;29;20056;-70
2023/12/09 03:12:24;;;;;;;117.45;47.88;;;;;;;0.31;93.70;100892.19;4916374;29;20055;-71
2023/12/09 03:14:52;;;;;;;128.55;48.40;;;;;;;0.29;93.54;100899.38;4914958;29;20056;-71
2023/12/09 03:17:19;;;;;;;123.03;50.55;;;;;;;0.23;94.34;100899.66;4915240;29;20058;-72
2023/12/09 03:19:46;;;;;;;122.70;48.55;;;;;;;0.23;94.58;100891.66;4915512;29;20052;-71
2023/12/09 03:22:12;;;;;;;131.20;49.30;;;;;;;0.29;94.74;100900.22;4916394;29;20052;-70
2023/12/09 03:24:42;;;;;;;130.93;50.47;;;;;;;0.26;94.60;100907.50;4915411;29;20040;-70
2023/12/09 03:27:09;;;;;;;118.50;49.80;;;;;;;0.29;94.59;100905.56;4915687;29;20052;-71
2023/12/09 03:29:36;;;;;;;128.95;48.40;;;;;;;0.40;94.37;100907.81;4914966;29;20040;-71
2023/12/09 03:32:03;;;;;;;135.93;51.55;;;;;;;0.30;94.66;100903.75;4915784;29;20112;-70
2023/12/09 03:34:29;;;;;;;131.65;50.45;;;;;;;0.33;94.44;100906.31;4915321;29;20044;-71
2023/12/09 03:36:56;;;;;;;140.63;51.47;;;;;;;0.27;95.16;100901.25;4915987;29;20580;-71
2023/12/09 03:39:23;;;;;;;133.65;51.25;;;;;;;0.33;94.56;100898.31;4915740;29;20541;-71
2023/12/09 03:41:49;;;;;;;141.02;53.15;;;;;;;0.31;94.74;100900.19;4914723;29;20074;-71
2023/12/09 03:44:16;;;;;;;147.15;53.72;;;;;;;0.28;95.02;100897.63;4913338;29;20477;-69
2023/12/09 03:46:43;;;;;;;148.55;54.13;;;;;;;0.25;95.18;100892.44;4915018;29;20048;-70
2023/12/09 03:49:09;;;;;;;139.07;53.13;;;;;;;0.24;95.35;100896.03;4914895;29;20048;-69
2023/12/09 03:51:36;;;;;;;140.23;53.17;;;;;;;0.26;95.34;100897.72;4914709;29;20131;-69
2023/12/09 03:54:03;;;;;;;152.32;53.60;;;;;;;0.28;95.13;100900.31;4924372;28;20051;-70
2023/12/09 03:56:30;;;;;;;151.02;54.72;;;;;;;0.28;95.51;100898.50;4933198;28;20047;-69
2023/12/09 03:58:57;;;;;;;149.88;55.45;;;;;;;0.31;95.39;100900.19;4933762;28;20047;-70
2023/12/09 04:01:24;;;;;;;167.30;58.30;;;;;;;0.29;95.31;100905.56;4934528;28;20087;-70
2023/12/09 04:03:51;;;;;;;157.35;57.75;;;;;;;0.31;95.54;100908.19;4933259;28;20492;-70
2023/12/09 04:06:18;;;;;;;166.00;58.72;;;;;;;0.26;95.95;100904.84;4933615;28;20055;-71
2023/12/09 04:08:45;;;;;;;163.77;58.10;;;;;;;0.29;95.43;100912.69;4933633;28;20135;-71
2023/12/09 04:11:11;;;;;;;163.20;58.15;;;;;;;0.31;95.34;100914.41;4932777;28;20484;-71
2023/12/09 04:13:40;;;;;;;157.57;58.65;;;;;;;0.35;95.65;100909.78;4933443;28;20110;-71
2023/12/09 04:16:07;;;;;;;165.65;58.10;;;;;;;0.32;95.41;100913.47;4932982;28;20051;-71
2023/12/09 04:18:34;;;;;;;166.65;57.92;;;;;;;0.31;95.30;100910.88;4933265;28;20103;-71
2023/12/09 04:21:01;;;;;;;169.88;57.92;;;;;;;0.34;95.27;100908.06;4933855;28;20044;-71
2023/12/09 04:23:27;;;;;;;174.93;59.88;;;;;;;0.33;95.43;100909.00;4933805;28;20054;-69
2023/12/09 04:25:54;;;;;;;166.93;57.88;;;;;;;0.31;95.57;100914.41;4934915;29;20072;-67
2023/12/09 04:28:20;;;;;;;173.95;60.42;;;;;;;0.32;95.78;100916.13;4935878;28;20556;-67
2023/12/09 04:30:47;;;;;;;189.68;60.75;;;;;;;0.35;95.61;100910.66;4934856;28;21637;-67
2023/12/09 04:33:13;;;;;;;188.23;61.80;;;;;;;0.37;95.66;100907.91;4935554;28;20458;-67
2023/12/09 04:35:40;;;;;;;180.63;60.40;;;;;;;0.38;95.65;100902.50;4933687;28;20492;-68
2023/12/09 04:38:07;;;;;;;185.95;61.80;;;;;;;0.56;95.84;100908.84;4935066;28;20116;-68
2023/12/09 04:40:33;;;;;;;187.02;59.85;;;;;;;0.41;95.51;100909.53;4934595;28;20047;-67
2023/12/09 04:43:00;;;;;;;190.45;63.55;;;;;;;0.41;95.92;100914.88;4934838;28;20469;-67
2023/12/09 04:45:26;;;;;;;198.82;65.18;;;;;;;0.40;95.62;100914.00;4934936;28;20185;-67
2023/12/09 04:47:53;;;;;;;192.80;63.65;;;;;;;0.41;95.95;100909.53;4936040;28;20043;-67
2023/12/09 04:50:20;;;;;;;182.32;63.30;;;;;;;0.44;95.92;100904.06;4935348;28;20043;-67
2023/12/09 04:52:47;;;;;;;181.65;60.38;;;;;;;0.39;95.55;100903.38;4935050;28;20468;-67
2023/12/09 04:55:14;;;;;;;190.38;62.40;;;;;;;0.40;95.72;100907.81;4915267;29;20076;-67
2023/12/09 04:57:40;;;;;;;196.52;61.00;;;;;;;0.33;95.67;100901.00;4916596;29;20489;-67
2023/12/09 05:00:10;;;;;;;207.10;63.85;;;;;;;0.34;96.21;100903.59;4916112;29;20453;-67
2023/12/09 05:02:38;;;;;;;198.40;63.75;;;;;;;0.36;95.92;100900.84;4916948;29;20056;-70
2023/12/09 05:05:05;;;;;;;204.15;62.65;;;;;;;0.42;96.08;100901.47;4915916;29;20051;-68
2023/12/09 05:07:31;;;;;;;219.63;63.00;;;;;;;0.35;96.39;100894.63;4915806;29;20055;-69
2023/12/09 05:09:59;;;;;;;201.63;61.70;;;;;;;0.36;96.36;100890.16;4915214;29;20056;-69
2023/12/09 05:12:26;;;;;;;216.30;64.07;;;;;;;0.42;96.50;100900.59;4915811;29;20054;-68
2023/12/09 05:14:53;;;;;;;223.70;63.13;;;;;;;0.47;96.51;100898.56;4915576;29;20104;-67
2023/12/09 05:17:20;;;;;;;205.25;65.28;;;;;;;0.46;96.43;100895.97;4914216;29;20055;-70
2023/12/09 05:19:47;;;;;;;202.90;62.35;;;;;;;0.42;96.64;100896.13;4913326;29;20056;-70
2023/12/09 05:22:14;;;;;;;241.10;66.30;;;;;;;0.41;97.00;100885.53;4912603;29;20127;-70
2023/12/09 05:24:41;;;;;;;223.18;63.70;;;;;;;0.40;97.01;100881.13;4913587;29;20079;-70
2023/12/09 05:27:08;;;;;;;220.30;63.80;;;;;;;0.38;96.74;100877.63;4913941;29;20048;-70
2023/12/09 05:29:35;;;;;;;222.45;65.43;;;;;;;0.41;96.94;100882.84;4913050;29;20048;-70
2023/12/09 05:32:02;;;;;;;220.90;64.18;;;;;;;0.40;97.47;100875.78;4913053;29;20052;-70
2023/12/09 05:34:29;;;;;;;207.05;64.97;;;;;;;0.43;97.24;100870.31;4913956;29;20135;-70
2023/12/09 05:36:56;;;;;;;211.43;66.05;;;;;;;0.39;97.25;100868.69;4914507;29;20394;-71
2023/12/09 05:39:22;;;;;;;214.57;65.65;;;;;;;0.44;96.97;100864.03;4913462;29;20056;-70
2023/12/09 05:41:49;;;;;;;211.05;66.45;;;;;;;0.45;97.03;100857.75;4913364;29;20442;-70
2023/12/09 05:44:15;;;;;;;218.48;66.18;;;;;;;0.51;97.29;100862.81;4913172;29;20156;-71
2023/12/09 05:46:42;;;;;;;185.73;63.08;;;;;;;0.50;96.91;100860.22;4913255;29;20091;-70
2023/12/09 05:49:09;;;;;;;201.38;63.72;;;;;;;0.48;97.07;100854.94;4913630;29;20096;-70
2023/12/09 05:51:36;;;;;;;192.30;64.10;;;;;;;0.49;97.21;100854.03;4912780;29;20044;-70
2023/12/09 05:54:03;;;;;;;184.65;62.67;;;;;;;0.51;96.65;100846.81;4912942;29;20067;-70
2023/12/09 05:56:30;;;;;;;199.38;66.65;;;;;;;0.48;96.94;100848.72;4913397;29;20048;-70
2023/12/09 05:58:56;;;;;;;196.13;63.95;;;;;;;0.47;96.89;100861.22;4913336;29;20095;-70
2023/12/09 06:01:23;;;;;;;190.18;65.55;;;;;;;0.52;96.89;100859.22;4913380;29;20048;-70
2023/12/09 06:03:49;;;;;;;191.30;61.58;;;;;;;0.55;97.02;100853.72;4913348;29;20497;-71
2023/12/09 06:06:16;;;;;;;182.82;61.72;;;;;;;0.56;96.52;100855.47;4913652;29;20056;-69
2023/12/09 06:08:43;;;;;;;186.85;62.95;;;;;;;0.56;96.66;100851.94;4913430;29;20083;-70
2023/12/09 06:11:10;;;;;;;189.70;64.88;;;;;;;0.57;96.62;100846.53;4912933;29;20044;-70
2023/12/09 06:13:37;;;;;;;178.68;60.05;;;;;;;0.56;96.87;100847.47;4912260;29;20052;-70
2023/12/09 06:16:04;;;;;;;199.60;64.30;;;;;;;0.56;96.77;100842.13;4912233;29;20119;-70
2023/12/09 06:18:31;;;;;;;202.63;62.90;;;;;;;0.62;96.69;100847.19;4913651;29;20059;-70
2023/12/09 06:20:58;;;;;;;190.48;63.75;;;;;;;0.61;96.96;100845.47;4913272;29;20072;-69
2023/12/09 06:23:25;;;;;;;177.15;64.25;;;;;;;0.63;96.46;100840.91;4914255;29;20044;-69
2023/12/09 06:25:52;;;;;;;182.43;63.42;;;;;;;0.65;96.72;100841.69;4913755;29;20161;-71
2023/12/09 06:28:19;;;;;;;168.48;61.45;;;;;;;0.66;96.50;100840.75;4913710;29;20485;-70
2023/12/09 06:30:46;;;;;;;171.30;60.05;;;;;;;0.66;96.64;100848.78;4913094;29;20111;-70
2023/12/09 06:33:12;;;;;;;168.65;61.78;;;;;;;0.68;96.63;100852.25;4913741;29;20104;-70
2023/12/09 06:35:39;;;;;;;169.07;62.30;;;;;;;0.67;96.54;100847.84;4916343;29;20070;-69
2023/12/09 06:38:06;;;;;;;165.43;60.65;;;;;;;0.71;96.54;100844.09;4916619;29;20099;-69
2023/12/09 06:40:32;;;;;;;171.82;60.38;;;;;;;0.73;96.33;100851.19;4916748;29;20095;-72
2023/12/09 06:42:59;;;;;;;174.43;59.65;;;;;;;0.74;96.42;100847.56;4916050;29;20056;-70
2023/12/09 06:45:26;;;;;;;174.55;62.13;;;;;;;0.76;96.24;100840.34;4916927;29;20099;-70
2023/12/09 06:47:53;;;;;;;168.70;59.25;;;;;;;0.79;96.36;100864.25;4915190;29;20054;-70
2023/12/09 06:50:21;;;;;;;165.63;60.03;;;;;;;0.84;96.06;100870.22;4916608;29;20047;-69
2023/12/09 06:52:47;;;;;;;181.85;58.20;;;;;;;0.89;96.12;100869.09;4916412;29;20060;-70
2023/12/09 06:55:14;;;;;;;177.77;59.63;;;;;;;0.87;96.23;100876.31;4934652;28;20099;-69
2023/12/09 06:57:41;;;;;;;163.52;58.47;;;;;;;0.90;96.24;100872.63;4934238;28;20055;-70
2023/12/09 07:00:08;;;;;;;163.60;60.00;;;;;;;0.91;96.13;100874.38;4935220;28;20054;-70
2023/12/09 07:02:36;;;;;;;158.90;59.00;;;;;;;0.95;95.80;100883.97;4934186;28;20082;-70
2023/12/09 07:05:18;;;;;;;154.02;57.10;;;;;;;0.94;95.74;100868.88;4934715;28;20052;-70
2023/12/09 07:07:45;;;;;;;164.32;56.35;;;;;;;0.89;95.91;100878.91;4934165;28;20055;-70
2023/12/09 07:10:12;;;;;;;149.77;56.20;;;;;;;0.95;96.01;100873.28;4934965;28;20095;-70
2023/12/09 07:12:38;;;;;;;151.73;56.20;;;;;;;0.93;95.84;100859.13;4934113;28;20102;-70
2023/12/09 07:15:06;;;;;;;157.30;55.50;;;;;;;0.87;96.41;100864.78;4934759;28;20062;-71
2023/12/09 07:17:33;;;;;;;148.27;56.63;;;;;;;0.86;96.07;100860.34;4934745;28;20469;-71
2023/12/09 07:19:59;;;;;;;149.75;56.05;;;;;;;0.88;96.06;100864.69;4934517;28;20071;-70
2023/12/09 07:22:26;;;;;;;141.60;53.33;;;;;;;0.90;95.91;100868.16;4935119;28;20047;-70
2023/12/09 07:24:53;;;;;;;154.93;57.35;;;;;;;0.89;95.89;100868.22;4934775;28;20047;-70
2023/12/09 07:27:19;;;;;;;151.02;54.90;;;;;;;0.91;96.31;100866.34;4934796;28;20048;-71
2023/12/09 07:29:46;;;;;;;136.80;53.92;;;;;;;0.88;96.00;100866.50;4933965;28;20052;-70
2023/12/09 07:32:13;;;;;;;164.68;60.80;;;;;;;0.89;96.27;100868.22;4934702;28;20043;-71
2023/12/09 07:34:40;;;;;;;142.82;55.20;;;;;;;0.89;96.31;100866.44;4931665;28;20103;-71
2023/12/09 07:37:09;;;;;;;146.20;53.08;;;;;;;0.95;96.22;100862.59;4933750;28;20043;-72
2023/12/09 07:39:42;;;;;;;135.15;53.72;;;;;;;0.98;96.22;100870.47;4934529;28;20137;-67
2023/12/09 07:42:10;;;;;;;144.27;53.10;;;;;;;0.98;96.02;100873.16;4931260;28;20059;-72
2023/12/09 07:44:36;;;;;;;132.30;50.30;;;;;;;1.02;96.05;100872.06;4934123;28;20054;-70
2023/12/09 07:47:03;;;;;;;133.45;50.63;;;;;;;1.05;95.83;100868.38;4933482;28;20099;-73
2023/12/09 07:49:30;;;;;;;121.65;49.47;;;;;;;1.08;96.03;100854.91;4933852;28;20048;-71
2023/12/09 07:51:57;;;;;;;122.63;50.63;;;;;;;1.08;95.71;100860.25;4934728;28;20107;-72
2023/12/09 07:54:24;;;;;;;125.80;50.50;;;;;;;1.10;95.94;100861.88;4921519;28;20048;-72
2023/12/09 07:56:50;;;;;;;122.38;49.45;;;;;;;1.15;95.65;100864.38;4914854;29;20509;-72
2023/12/09 07:59:17;;;;;;;118.35;48.90;;;;;;;1.19;95.65;100868.59;4915320;29;20421;-72
2023/12/09 08:01:44;;;;;;;110.88;48.20;;;;;;;1.20;95.19;100867.66;4913629;29;20090;-71
2023/12/09 08:04:11;;;;;;;107.95;46.88;;;;;;;1.33;95.02;100870.63;4916271;29;20048;-66
2023/12/09 08:06:39;;;;;;;120.13;46.80;;;;;;;1.26;94.91;100868.25;4916208;29;20059;-67
2023/12/09 08:09:06;;;;;;;117.75;46.22;;;;;;;1.32;94.98;100860.88;4915869;29;20052;-68
2023/12/09 08:11:33;;;;;;;107.90;45.17;;;;;;;1.35;94.98;100855.41;4914199;29;20493;-66
2023/12/09 08:14:01;;;;;;;103.28;46.40;;;;;;;1.36;94.75;100857.13;4915524;29;20052;-66
2023/12/09 08:16:28;;;;;;;106.22;44.97;;;;;;;1.38;94.89;100856.09;4915905;29;20425;-68
2023/12/09 08:18:54;;;;;;;104.63;45.65;;;;;;;1.49;94.72;100858.25;4916152;29;20119;-68
2023/12/09 08:21:21;;;;;;;109.55;44.22;;;;;;;1.47;94.36;100862.81;4915437;29;20055;-67
2023/12/09 08:23:48;;;;;;;96.13;42.58;;;;;;;1.52;94.26;100875.03;4914467;29;20112;-65
2023/12/09 08:26:17;;;;;;;91.85;41.08;;;;;;;1.63;94.46;100869.16;4915900;29;20055;-66
2023/12/09 08:28:45;;;;;;;94.00;42.67;;;;;;;1.62;93.84;100874.59;4915694;29;20190;-66
2023/12/09 08:31:12;;;;;;;90.85;41.65;;;;;;;1.61;93.71;100870.19;4914576;29;20058;-67
2023/12/09 08:33:39;;;;;;;85.75;41.15;;;;;;;1.63;94.16;100861.13;4914514;29;20075;-68
2023/12/09 08:36:07;;;;;;;96.47;41.65;;;;;;;1.55;93.96;100847.28;4912553;29;20071;-67
2023/12/09 08:38:34;;;;;;;81.15;39.80;;;;;;;1.62;94.24;100858.53;4914373;29;20552;-67
2023/12/09 08:41:00;;;;;;;82.25;39.22;;;;;;;1.62;93.82;100859.41;4914587;29;20067;-67
2023/12/09 08:43:27;;;;;;;82.65;37.47;;;;;;;1.73;93.78;100850.84;4915879;29;20055;-68
2023/12/09 08:45:54;;;;;;;71.93;35.65;;;;;;;1.76;93.84;100862.25;4915544;29;20043;-67
2023/12/09 08:48:20;;;;;;;78.22;37.50;;;;;;;1.86;93.55;100862.66;4914651;29;20104;-67
2023/12/09 08:50:47;;;;;;;87.05;37.92;;;;;;;1.84;93.23;100849.38;4914606;29;20107;-67
2023/12/09 08:53:14;;;;;;;86.75;38.50;;;;;;;1.87;93.36;100848.34;4918143;28;20044;-67
2023/12/09 08:55:41;;;;;;;80.95;37.58;;;;;;;1.90;93.12;100842.00;4933256;28;20134;-67
2023/12/09 08:58:07;;;;;;;70.03;34.78;;;;;;;1.95;92.95;100850.63;4932824;28;20052;-66
2023/12/09 09:00:34;;;;;;;73.18;35.22;;;;;;;1.89;93.32;100837.59;4933621;28;20464;-67
2023/12/09 09:03:03;;;;;;;69.20;35.85;;;;;;;1.91;93.05;100841.03;4933355;28;20513;-67
2023/12/09 09:05:29;;;;;;;71.82;35.70;;;;;;;1.90;93.08;100833.97;4933387;28;20576;-67
2023/12/09 09:07:56;;;;;;;76.30;37.10;;;;;;;1.98;93.30;100834.41;4934224;28;20413;-67
2023/12/09 09:10:24;;;;;;;70.60;35.10;;;;;;;2.04;92.48;100834.97;4934163;28;20468;-67
2023/12/09 09:12:50;;;;;;;75.13;35.42;;;;;;;1.98;92.93;100834.41;4933419;28;20051;-67
2023/12/09 09:15:17;;;;;;;76.93;34.80;;;;;;;2.00;93.00;100828.06;4934091;28;20043;-67
2023/12/09 09:17:44;;;;;;;77.13;35.33;;;;;;;2.00;93.06;100824.53;4933041;28;20051;-68
2023/12/09 09:20:10;;;;;;;74.15;34.67;;;;;;;2.06;92.71;100824.19;4933886;28;20052;-66
2023/12/09 09:22:37;;;;;;;70.88;34.63;;;;;;;2.09;92.57;100829.41;4933489;28;20098;-69
2023/12/09 09:25:04;;;;;;;67.05;34.10;;;;;;;2.06;92.86;100826.88;4933487;28;20519;-68
2023/12/09 09:27:31;;;;;;;72.15;34.83;;;;;;;2.12;92.54;100821.22;4933611;28;20099;-68
2023/12/09 09:29:58;;;;;;;67.68;33.35;;;;;;;2.07;93.18;100823.25;4933414;28;20480;-66
2023/12/09 09:32:25;;;;;;;68.32;33.75;;;;;;;2.03;93.06;100832.38;4945491;28;20107;-68
2023/12/09 09:34:52;;;;;;;72.07;34.00;;;;;;;2.03;93.29;100837.75;4947608;28;20404;-66
2023/12/09 09:37:19;;;;;;;72.75;35.13;;;;;;;2.07;93.22;100831.28;4946642;28;20126;-67
2023/12/09 09:39:47;;;;;;;68.28;34.08;;;;;;;2.01;93.39;100832.47;4931982;28;20052;-70
2023/12/09 09:42:19;;;;;;;67.35;32.63;;;;;;;2.04;93.11;100828.75;4931743;28;20079;-69
2023/12/09 09:45:10;;;;;;;77.13;34.13;;;;;;;2.02;93.59;100830.66;4931973;28;20059;-69
2023/12/09 09:47:37;;;;;;;60.53;31.67;;;;;;;2.08;93.30;100830.34;4932548;28;20047;-68
2023/12/09 09:50:08;;;;;;;66.47;33.17;;;;;;;2.06;93.58;100833.09;4932967;28;20048;-66
2023/12/09 09:52:36;;;;;;;74.90;31.77;;;;;;;2.14;93.35;100827.34;4932845;28;20509;-67
2023/12/09 09:55:06;;;;;;;69.72;33.17;;;;;;;2.17;93.25;100829.03;4932308;28;20056;-66
2023/12/09 09:57:34;;;;;;;64.90;32.72;;;;;;;2.16;93.10;100822.78;4933047;28;20046;-66
2023/12/09 10:00:01;;;;;;;57.97;31.77;;;;;;;2.26;92.82;100818.69;4933334;28;20043;-66
2023/12/09 10:02:28;;;;;;;61.47;32.03;;;;;;;2.24;92.91;100815.22;4933419;28;20578;-66
2023/12/09 10:04:55;;;;;;;72.80;32.72;;;;;;;2.24;92.89;100804.50;4933662;28;20044;-67
2023/12/09 10:07:22;;;;;;;62.42;31.65;;;;;;;2.39;92.12;100809.06;4934089;28;20103;-67
2023/12/09 10:09:49;;;;;;;59.70;29.88;;;;;;;2.34;92.17;100800.41;4933299;28;20083;-68
2023/12/09 10:12:16;;;;;;;59.00;30.58;;;;;;;2.35;92.79;100799.47;4937634;28;20052;-66
2023/12/09 10:14:43;;;;;;;64.28;29.25;;;;;;;2.33;92.33;100784.44;4937006;28;20083;-68
2023/12/09 10:17:11;;;;;;;60.25;31.10;;;;;;;2.36;92.35;100786.97;4939621;28;20417;-68
2023/12/09 10:19:38;;;;;;;66.93;30.63;;;;;;;2.43;92.71;100781.19;4937166;28;20048;-68
2023/12/09 10:22:05;;;;;;;63.10;30.63;;;;;;;2.43;91.69;100775.81;4936448;28;20051;-68
2023/12/09 10:24:31;;;;;;;60.17;29.25;;;;;;;2.49;92.47;100782.66;4935013;28;20102;-71
2023/12/09 10:26:59;;;;;;;60.03;30.05;;;;;;;2.43;92.19;100770.47;4936411;28;20048;-71
2023/12/09 10:29:26;;;;;;;58.55;29.83;;;;;;;2.42;92.28;100770.56;4934767;29;20048;-67
2023/12/09 10:31:53;;;;;;;55.15;27.55;;;;;;;2.51;92.08;100770.06;4936195;28;20043;-67
2023/12/09 10:34:20;;;;;;;60.67;28.83;;;;;;;2.52;92.44;100770.91;4936844;28;20055;-66
2023/12/09 10:36:47;;;;;;;56.72;28.65;;;;;;;2.51;92.23;100759.34;4936451;28;20063;-67
2023/12/09 10:39:13;;;;;;;59.50;29.10;;;;;;;2.45;92.34;100761.50;4936881;28;20094;-68
2023/12/09 10:41:45;;;;;;;61.42;27.45;;;;;;;2.46;92.46;100753.41;4939182;28;20461;-69
2023/12/09 10:44:12;;;;;;;57.90;30.58;;;;;;;2.46;92.72;100747.19;4937295;28;20067;-67
2023/12/09 10:46:38;;;;;;;50.60;27.30;;;;;;;2.55;92.47;100744.00;4936977;28;20063;-69
2023/12/09 10:49:05;;;;;;;54.63;27.95;;;;;;;2.47;92.39;100738.19;4936729;28;20055;-68
2023/12/09 10:51:32;;;;;;;59.50;27.27;;;;;;;2.59;92.25;100733.03;4937073;28;20044;-68
2023/12/09 10:53:58;;;;;;;57.60;28.38;;;;;;;2.48;92.23;100730.06;4937402;28;20119;-67
2023/12/09 10:56:25;;;;;;;52.33;27.08;;;;;;;2.53;92.59;100728.00;4937831;28;20059;-67
2023/12/09 10:58:55;;;;;;;58.58;27.40;;;;;;;2.55;92.07;100712.75;4937401;28;20047;-68
2023/12/09 11:01:22;;;;;;;53.70;26.50;;;;;;;2.49;92.44;100713.06;4937193;28;20051;-67
2023/12/09 11:03:49;;;;;;;54.28;26.77;;;;;;;2.52;92.38;100712.03;4937736;28;20055;-67
2023/12/09 11:06:19;;;;;;;55.90;26.15;;;;;;;2.49;92.57;100705.03;4937373;28;20054;-68
2023/12/09 11:08:47;;;;;;;55.42;25.77;;;;;;;2.59;92.35;100703.56;4936229;28;20082;-69
2023/12/09 11:11:14;;;;;;;54.45;25.70;;;;;;;2.63;92.19;100709.59;4936871;28;20106;-69
2023/12/09 11:13:46;;;;;;;50.65;26.00;;;;;;;2.65;92.06;100705.06;4935300;28;20055;-71
2023/12/09 11:16:20;;;;;;;49.28;23.80;;;;;;;2.68;91.74;100694.16;4934581;28;20048;-71